Bookmark and Share
Track history (hours):
 

Shinkai Maru

Last reported at 2014-Apr-18 10:19 UTC. Time now 2014-Apr-18 10:49 UTC.
Position N 34°39' E 135°26'.

Length 76 m; draft 4.5 m.

Type: Cargo ship. MMSI: 431301346.

NotesDate/timePositionNaut miles runAvg speedWind from/ knotsBaromVisibWave heightAir tempDewpointWater temp
2014-Apr-18 10:19N 34°39' E 135°26'0 0.0
2014-Apr-18 08:25N 34°39' E 135°26'0 0.0
2014-Apr-18 07:31N 34°39' E 135°26'0 0.0
2014-Apr-18 06:13N 34°39' E 135°26'0 0.0
2014-Apr-18 05:31N 34°39' E 135°26'0 0.0
2014-Apr-18 04:25N 34°39' E 135°26'0 0.0
2014-Apr-18 03:31N 34°39' E 135°26'0 0.0
2014-Apr-18 02:19N 34°39' E 135°26'0 0.0
2014-Apr-18 01:31N 34°39' E 135°26'0 0.0
2014-Apr-18 00:31N 34°39' E 135°26'0 0.0
2014-Apr-17 23:25N 34°39' E 135°26'0 0.0
2014-Apr-17 22:19N 34°39' E 135°26'0 0.0
2014-Apr-17 21:31N 34°39' E 135°26'0 0.0
2014-Apr-17 20:25N 34°39' E 135°26'0 0.0
2014-Apr-17 19:31N 34°39' E 135°26'0 0.0
2014-Apr-17 18:31N 34°39' E 135°26'0 0.0
2014-Apr-17 17:31N 34°39' E 135°26'0 0.0
2014-Apr-17 16:31N 34°39' E 135°26'0 0.0
2014-Apr-17 15:31N 34°39' E 135°26'0 0.0
2014-Apr-17 14:19N 34°39' E 135°26'0 0.0
2014-Apr-17 13:31N 34°39' E 135°26'0 0.0
2014-Apr-17 12:19N 34°39' E 135°26'0 0.0
2014-Apr-17 11:19N 34°39' E 135°26'0 0.0
2014-Apr-17 08:19N 34°39' E 135°26'0 0.0
2014-Apr-17 07:31N 34°39' E 135°26'0 0.0
2014-Apr-17 06:31N 34°39' E 135°26'0 0.0
2014-Apr-17 05:31N 34°39' E 135°26'0 0.0
2014-Apr-17 04:25N 34°39' E 135°26'0 0.0
2014-Apr-17 03:31N 34°39' E 135°26'0 0.0
2014-Apr-17 02:31N 34°39' E 135°26'0 0.0
2014-Apr-17 01:31N 34°39' E 135°26'3 2.8
2014-Apr-17 00:33N 34°38' E 135°23'1212.0
2014-Apr-16 23:32N 34°29' E 135°13'1312.8
2014-Apr-16 22:32N 34°18' E 135°04'1312.8
2014-Apr-16 21:33N 34°06' E 135°03'223 9.7
2014-Apr-15 22:33N 34°57' E 139°27'1312.6
2014-Apr-15 21:33N 35°06' E 139°39'1211.9
2014-Apr-15 20:33N 35°16' E 139°46'10 9.8
2014-Apr-15 19:33N 35°25' E 139°46'6 6.0
2014-Apr-15 18:33N 35°21' E 139°51'0 0.0
2014-Apr-15 17:30N 35°21' E 139°51'0 0.0
2014-Apr-15 16:33N 35°21' E 139°51'0 0.0
2014-Apr-15 15:33N 35°21' E 139°51'0 0.0
2014-Apr-15 14:30N 35°21' E 139°51'0 0.0
2014-Apr-15 12:34N 35°21' E 139°51'0 0.0
2014-Apr-15 11:31N 35°21' E 139°51'0 0.0
2014-Apr-15 10:34N 35°21' E 139°51'0 0.0
2014-Apr-15 09:31N 35°21' E 139°51'0 0.0
2014-Apr-15 08:34N 35°21' E 139°51'1 0.7
2014-Apr-15 06:34N 35°22' E 139°50'0 0.0
2014-Apr-15 05:34N 35°22' E 139°50'0 0.0
2014-Apr-15 03:33N 35°22' E 139°50'0 0.0
2014-Apr-15 02:33N 35°22' E 139°50'9 9.1
2014-Apr-15 01:34N 35°27' E 139°41'0 0.3
2014-Apr-15 00:33N 35°27' E 139°41'0 0.0
2014-Apr-14 23:33N 35°27' E 139°41'0 0.0
2014-Apr-14 22:33N 35°27' E 139°41'0 0.0
2014-Apr-14 21:33N 35°27' E 139°41'0 0.0
2014-Apr-14 20:33N 35°27' E 139°41'0 0.0
2014-Apr-14 19:33N 35°27' E 139°41'0 0.0
2014-Apr-14 18:33N 35°27' E 139°41'0 0.0
2014-Apr-14 17:33N 35°27' E 139°41'0 0.0
2014-Apr-14 16:33N 35°27' E 139°41'0 0.0
2014-Apr-14 15:33N 35°27' E 139°41'0 0.0
2014-Apr-14 14:33N 35°27' E 139°41'0 0.0
2014-Apr-14 13:33N 35°27' E 139°41'0 0.0
2014-Apr-14 11:33N 35°27' E 139°41'0 0.0
2014-Apr-14 10:33N 35°27' E 139°41'0 0.0
2014-Apr-14 09:33N 35°27' E 139°41'0 0.0
2014-Apr-14 08:33N 35°27' E 139°41'0 0.0
2014-Apr-14 07:33N 35°27' E 139°41'0 0.0
2014-Apr-14 06:33N 35°27' E 139°41'1 1.4
2014-Apr-14 05:33N 35°27' E 139°42'19 2.7
2014-Apr-13 22:27N 35°41' E 139°58'0 0.0
2014-Apr-13 21:33N 35°41' E 139°58'0 0.0
2014-Apr-13 20:24N 35°41' E 139°58'0 0.0
2014-Apr-13 19:33N 35°41' E 139°58'0 0.0
2014-Apr-13 18:33N 35°41' E 139°58'0 0.0
2014-Apr-13 17:33N 35°41' E 139°58'0 0.0
2014-Apr-13 16:33N 35°41' E 139°58'0 0.5
2014-Apr-13 15:33N 35°40' E 139°57'1111.4
2014-Apr-13 14:33N 35°30' E 139°52'1212.3
2014-Apr-13 13:33N 35°19' E 139°44'1111.3
2014-Apr-13 12:33N 35°08' E 139°45'1212.4
2014-Apr-13 11:33N 34°60' E 139°34'230 9.8
2014-Apr-12 12:05N 34°19' E 134°59'712.1
2014-Apr-12 11:29N 34°27' E 135°00'1010.7
2014-Apr-12 10:33N 34°36' E 135°02'11 9.9
2014-Apr-12 09:29N 34°40' E 134°50'2 0.2
2014-Apr-11 19:03N 34°42' E 134°48'2 0.1
2014-Apr-10 20:07N 34°42' E 134°50'611.3
2014-Apr-10 19:33N 34°37' E 134°55'1312.9
2014-Apr-10 18:33N 34°37' E 135°11'1212.5
2014-Apr-10 17:33N 34°39' E 135°26'1 0.4
2014-Apr-10 14:14N 34°38' E 135°27'0 0.0
2014-Apr-10 13:32N 34°38' E 135°27'0 0.0
2014-Apr-10 12:32N 34°38' E 135°27'0 0.0
2014-Apr-10 11:32N 34°38' E 135°27'0 0.0
2014-Apr-10 10:20N 34°38' E 135°27'0 0.0
2014-Apr-10 09:26N 34°38' E 135°27'0 0.0
2014-Apr-10 08:32N 34°38' E 135°27'0 0.0
2014-Apr-10 07:32N 34°38' E 135°27'0 0.0
2014-Apr-10 03:14N 34°38' E 135°27'0 0.0
2014-Apr-10 02:26N 34°38' E 135°27'2 2.7
2014-Apr-10 01:33N 34°39' E 135°24'1212.3
2014-Apr-10 00:33N 34°30' E 135°13'1212.0
2014-Apr-09 23:33N 34°22' E 135°03'1111.2
2014-Apr-09 22:33N 34°11' E 135°00'23010.0
2014-Apr-08 23:33N 35°02' E 139°33'1312.9
2014-Apr-08 22:33N 35°10' E 139°44'1111.3
2014-Apr-08 21:33N 35°22' E 139°42'8 7.8
2014-Apr-08 20:33N 35°22' E 139°52'1 1.3
2014-Apr-08 19:33N 35°22' E 139°53'0 0.0
2014-Apr-08 18:33N 35°22' E 139°53'0 0.0
2014-Apr-08 17:32N 35°22' E 139°53'0 0.0
2014-Apr-08 16:32N 35°22' E 139°53'0 0.0
2014-Apr-08 15:33N 35°22' E 139°53'0 0.0
2014-Apr-08 14:32N 35°22' E 139°53'0 0.0
2014-Apr-08 13:32N 35°22' E 139°53'0 0.0
2014-Apr-08 12:33N 35°22' E 139°53'1 1.5
2014-Apr-08 11:33N 35°22' E 139°52'1 1.3
2014-Apr-08 10:26N 35°24' E 139°51'  

Dump ship's entire track history

sailing weather and tide predictions

Shinkai Maru — JJ4012 — position and weather